Terminal Aerodrome Forecast
Issued by NWS

Home | Current Version | Previous Version | Text Only | Print | Product List | Glossary On
Versions: 1 2 3 4 5 6 7 8 9 10 11 12 13 14 15 16 17 18
000
FTUS41 KOKX 282000 AAB
TAFSWF
TAF AMD
KSWF 282033Z 2821/2924 29010KT P6SM FEW025 BKN100
     FM290300 31007KT P6SM BKN150
     FM291200 31009KT P6SM SCT250
     FM291800 30009KT P6SM FEW035 SCT250
      AMD NOT SKED=

USA.gov is the U.S. government's official web portal to all federal, state and local government web resources and services.